createdAt,value
2023-02-06T00:01:09.557Z,28.6
2023-02-06T00:06:48.293Z,28.6
2023-02-06T00:12:25.888Z,28.6
2023-02-06T00:18:05.329Z,28.6
2023-02-06T00:23:43.465Z,28.6
2023-02-06T00:29:21.282Z,28.5
2023-02-06T00:34:59.920Z,28.5
2023-02-06T00:51:07.594Z,28.4
2023-02-06T00:56:44.855Z,28.4
2023-02-06T01:02:22.967Z,28.4
2023-02-06T01:08:01.476Z,28.4
2023-02-06T01:13:40.020Z,28.4
2023-02-06T01:19:18.210Z,28.3
2023-02-06T01:24:56.454Z,28.3
2023-02-06T01:30:33.864Z,28.3
2023-02-06T01:36:17.229Z,28.3
2023-02-06T01:41:55.948Z,28.3
2023-02-06T01:47:33.868Z,28.3
2023-02-06T01:53:11.105Z,28.2
2023-02-06T01:58:49.313Z,28.2
2023-02-06T02:04:27.752Z,28.3
2023-02-06T02:10:05.693Z,28.5
2023-02-06T02:15:43.459Z,28.9
2023-02-06T02:21:21.379Z,29.6
2023-02-06T02:27:00.600Z,30.2
2023-02-06T02:32:39.383Z,30.8
2023-02-06T02:38:16.883Z,31.6
2023-02-06T02:43:54.015Z,32.2
2023-02-06T02:49:33.056Z,32.9
2023-02-06T02:55:10.713Z,33.6
2023-02-06T03:00:48.240Z,34.2
2023-02-06T03:06:27.369Z,34.9
2023-02-06T03:12:04.706Z,35.6
2023-02-06T03:17:42.317Z,36.3
2023-02-06T03:23:20.535Z,36.9
2023-02-06T03:34:21.989Z,38.3
2023-02-06T03:39:44.306Z,38.5
2023-02-06T03:45:22.329Z,38.6
2023-02-06T03:51:00.813Z,38.6
2023-02-06T03:56:39.952Z,38.6
2023-02-06T04:02:20.021Z,38.6
2023-02-06T04:07:42.201Z,38.6
2023-02-06T04:13:20.846Z,38.6
2023-02-06T04:19:07.255Z,38.6
2023-02-06T04:24:30.999Z,38.6
2023-02-06T04:30:08.789Z,38.5
2023-02-06T04:35:47.523Z,38.5
2023-02-06T04:41:25.051Z,38.4
2023-02-06T04:47:03.774Z,38.4
2023-02-06T04:52:40.451Z,38.4
2023-02-06T04:58:18.225Z,38.4
2023-02-06T05:03:41.281Z,38.3
2023-02-06T05:14:42.761Z,38.3
2023-02-06T05:20:21.339Z,38.3
2023-02-06T05:25:59.422Z,38.2
2023-02-06T05:37:00.956Z,38.1
2023-02-06T05:42:38.949Z,38.1
2023-02-06T05:48:04.029Z,38
2023-02-06T05:53:28.294Z,38
2023-02-06T05:58:50.426Z,37.9
2023-02-06T06:04:12.560Z,37.9
2023-02-06T06:09:51.333Z,37.9
2023-02-06T06:15:15.621Z,37.8
2023-02-06T06:20:54.152Z,37.8
2023-02-06T06:32:10.039Z,37.8
2023-02-06T06:37:48.948Z,37.9
2023-02-06T06:43:26.798Z,37.9
2023-02-06T06:49:05.149Z,37.9
2023-02-06T06:54:53.192Z,37.8
2023-02-06T07:00:31.325Z,37.8
2023-02-06T07:05:54.675Z,37.8
2023-02-06T07:11:32.670Z,37.8
2023-02-06T07:17:11.503Z,37.8
2023-02-06T07:22:49.354Z,37.8
2023-02-06T07:28:27.611Z,37.8
2023-02-06T07:34:06.295Z,37.7
2023-02-06T07:39:44.549Z,37.6
2023-02-06T07:45:00.228Z,37.6
2023-02-06T07:50:39.815Z,37.6
2023-02-06T07:56:17.517Z,37.5
2023-02-06T08:01:55.793Z,37.4
2023-02-06T08:07:34.994Z,37.3
2023-02-06T08:13:12.810Z,37.3
2023-02-06T08:18:51.278Z,37.3
2023-02-06T08:24:30.121Z,37.2
2023-02-06T08:30:08.423Z,37.1
2023-02-06T08:35:31.591Z,37.1
2023-02-06T08:41:10.561Z,37.1
2023-02-06T08:46:50.926Z,37
2023-02-06T08:52:32.607Z,37
2023-02-06T08:58:11.399Z,36.9
2023-02-06T09:08:57.832Z,43.8
2023-02-06T09:14:42.378Z,42.2
2023-02-06T09:20:20.854Z,41.3
2023-02-06T09:25:58.041Z,47.9
2023-02-06T09:31:50.103Z,54.8
2023-02-06T09:37:28.199Z,54.9
2023-02-06T09:43:05.769Z,52.5
2023-02-06T09:48:44.893Z,49.3
2023-02-06T09:54:23.064Z,52.1
2023-02-06T10:00:01.059Z,55.4
2023-02-06T10:05:40.589Z,54.3
2023-02-06T10:11:20.398Z,51.2
2023-02-06T10:16:45.009Z,51.2
2023-02-06T10:22:23.644Z,56.6
2023-02-06T10:28:01.876Z,58.3
2023-02-06T10:33:50.070Z,55.9
2023-02-06T10:39:12.765Z,53.9
2023-02-06T10:44:35.865Z,49.8
2023-02-06T10:50:09.551Z,39.6
2023-02-06T10:55:49.297Z,34.9
2023-02-06T11:01:42.104Z,33.8
2023-02-06T11:07:36.770Z,32.4
2023-02-06T11:13:15.828Z,31.6
2023-02-06T11:18:40.227Z,30.6
2023-02-06T11:24:30.812Z,29.8
2023-02-06T11:29:56.787Z,32.1
2023-02-06T11:35:49.608Z,32.4
2023-02-06T11:41:31.304Z,30.9
2023-02-06T11:46:54.705Z,30.1
2023-02-06T11:52:33.026Z,30.2
2023-02-06T11:58:11.463Z,30.6
2023-02-06T12:03:50.824Z,30.8
2023-02-06T12:09:29.652Z,31
2023-02-06T12:14:54.321Z,31.1
2023-02-06T12:21:01.021Z,31.1
2023-02-06T12:26:40.420Z,31.1
2023-02-06T12:32:19.656Z,31.1
2023-02-06T12:37:42.607Z,31
2023-02-06T12:43:20.761Z,23.9
2023-02-06T12:49:01.486Z,34.4
2023-02-06T12:54:40.215Z,33
2023-02-06T13:00:30.651Z,32.4
2023-02-06T13:06:18.994Z,28.5
2023-02-06T13:12:03.565Z,33.6
2023-02-06T13:24:32.300Z,33.3
2023-02-06T13:30:10.713Z,35.1
2023-02-06T13:35:49.129Z,33.8
2023-02-06T13:41:12.456Z,33.6
2023-02-06T13:46:50.175Z,31.4
2023-02-06T13:52:10.616Z,30.4
2023-02-06T13:57:48.764Z,29.8
2023-02-06T14:03:27.429Z,29.4
2023-02-06T14:09:03.775Z,29.2
2023-02-06T14:14:25.728Z,28.9
2023-02-06T14:20:04.060Z,28.8
2023-02-06T14:25:42.496Z,28.6
2023-02-06T14:31:19.526Z,28.5
2023-02-06T14:36:43.151Z,28.4
2023-02-06T14:42:20.508Z,28.3
2023-02-06T14:48:17.932Z,28.1
2023-02-06T14:59:22.709Z,27.6
2023-02-06T15:04:45.626Z,27.3
2023-02-06T15:10:23.193Z,27.2
2023-02-06T15:16:00.282Z,27.1
2023-02-06T15:21:06.766Z,26.9
2023-02-06T15:26:58.137Z,26.8
2023-02-06T15:37:41.019Z,26.7
2023-02-06T15:43:21.775Z,26.6
2023-02-06T15:48:45.245Z,26.6
2023-02-06T15:54:21.741Z,26.5
2023-02-06T15:59:59.547Z,26.4
2023-02-06T16:05:21.671Z,26.4
2023-02-06T16:10:42.850Z,26.3
2023-02-06T16:16:05.543Z,26.3
2023-02-06T16:21:42.542Z,26.3
2023-02-06T16:27:19.859Z,26.2
2023-02-06T16:32:58.112Z,26.2
2023-02-06T16:38:34.849Z,26.2
2023-02-06T16:44:33.208Z,26.2
2023-02-06T16:50:16.281Z,26.2
2023-02-06T16:55:39.925Z,26.1
2023-02-06T17:01:31.002Z,26.1
2023-02-06T17:07:08.144Z,26.1
2023-02-06T17:12:29.491Z,26
2023-02-06T17:17:54.436Z,26
2023-02-06T17:28:38.782Z,26
2023-02-06T17:34:17.117Z,26
2023-02-06T17:39:07.960Z,26
2023-02-06T17:44:14.425Z,25.9
2023-02-06T17:49:35.212Z,25.9
2023-02-06T17:54:57.551Z,25.9
2023-02-06T18:00:19.169Z,25.9
2023-02-06T18:05:59.203Z,25.9
2023-02-06T18:11:21.259Z,25.9
2023-02-06T18:16:58.724Z,25.9
2023-02-06T18:22:38.366Z,25.9
2023-02-06T18:28:15.298Z,25.9
2023-02-06T18:33:47.765Z,25.9
2023-02-06T18:39:09.167Z,25.9
2023-02-06T18:44:30.897Z,25.9
2023-02-06T18:50:08.614Z,25.9
2023-02-06T18:55:45.109Z,25.9
2023-02-06T19:01:07.188Z,25.9
2023-02-06T19:06:44.278Z,25.9
2023-02-06T19:17:48.498Z,25.9
2023-02-06T19:23:40.544Z,25.9
2023-02-06T19:29:19.281Z,25.9
2023-02-06T19:34:41.816Z,25.9
2023-02-06T19:45:41.711Z,25.9
2023-02-06T19:51:20.506Z,25.8
2023-02-06T19:56:59.051Z,25.8
2023-02-06T20:02:35.478Z,25.6
2023-02-06T20:08:12.860Z,25.4
2023-02-06T20:13:50.712Z,25.3
2023-02-06T20:19:12.558Z,25.3
2023-02-06T20:24:50.374Z,25.2
2023-02-06T20:30:12.823Z,25.1
2023-02-06T20:35:35.644Z,24.9
2023-02-06T20:40:57.247Z,24.8
2023-02-06T20:46:20.253Z,24.8
2023-02-06T20:51:56.641Z,24.8
2023-02-06T20:57:18.815Z,24.8
2023-02-06T21:08:17.541Z,25.5
2023-02-06T21:13:54.584Z,26.1
2023-02-06T21:19:32.595Z,26.4
2023-02-06T21:25:26.942Z,26.8
2023-02-06T21:30:49.024Z,26.9
2023-02-06T21:42:04.522Z,27
2023-02-06T21:47:41.571Z,27.1
2023-02-06T21:53:18.551Z,27.1
2023-02-06T21:58:55.927Z,27.1
2023-02-06T22:04:33.039Z,27.3
2023-02-06T22:10:13.136Z,27.3
2023-02-06T22:15:50.450Z,27.3
2023-02-06T22:21:28.545Z,27.3
2023-02-06T22:27:07.439Z,27.2
2023-02-06T22:32:44.996Z,27.2
2023-02-06T22:38:22.900Z,27.1
2023-02-06T22:44:00.700Z,27.1
2023-02-06T22:49:22.426Z,27.1
2023-02-06T22:54:59.193Z,27.1
2023-02-06T23:00:37.707Z,27
2023-02-06T23:06:14.446Z,27
2023-02-06T23:17:14.926Z,26.9
2023-02-06T23:22:50.658Z,26.9
2023-02-06T23:28:12.488Z,26.9
2023-02-06T23:33:34.077Z,26.8
2023-02-06T23:44:32.063Z,26.8
2023-02-06T23:50:09.405Z,26.8
2023-02-06T23:55:46.075Z,26.8
